Time;durP1;ratioP1;P1;durP2;ratioP2;P2;SDS_P1;SDS_P2;PMS_P1;PMS_P2;Temp;Humidity;BMP_temperature;BMP_pressure;BME280_temperature;BME280_humidity;BME280_pressure;Samples;Min_cycle;Max_cycle;Signal;HPM_P1;HPM_P2
2022/05/09 05:02:24;;;;;;;17.58;11.95;;;11.50;99.90;;;;;;6142663;22;1365828;-79
2022/05/09 05:04:49;;;;;;;15.93;10.80;;;11.50;99.90;;;;;;6204806;23;20304;-80
2022/05/09 05:07:24;;;;;;;14.93;12.15;;;11.50;99.90;;;;;;6207558;23;19992;-80
2022/05/09 05:09:50;;;;;;;17.38;11.63;;;11.60;99.90;;;;;;6204928;23;20060;-78
2022/05/09 05:12:19;;;;;;;12.90;10.60;;;11.60;99.90;;;;;;6231541;23;19996;-80
2022/05/09 05:15:12;;;;;;;16.13;11.80;;;;;;;;;;6227924;23;20045;-79
2022/05/09 05:17:40;;;;;;;18.88;12.68;;;11.90;99.90;;;;;;6171029;23;20068;-78
2022/05/09 05:20:46;;;;;;;15.80;12.35;;;12.00;99.90;;;;;;6171164;23;20041;-79
2022/05/09 05:31:28;;;;;;;21.40;12.90;;;12.40;99.90;;;;;;6052767;23;20099;-78
2022/05/09 05:33:55;;;;;;;18.75;12.38;;;12.50;99.90;;;;;;6052357;23;20027;-81
2022/05/09 05:36:21;;;;;;;18.10;12.15;;;12.60;99.90;;;;;;6053319;23;20327;-78
2022/05/09 05:38:59;;;;;;;18.25;13.30;;;12.60;99.90;;;;;;6051910;23;20018;-79
2022/05/09 05:41:25;;;;;;;15.15;11.75;;;12.70;99.90;;;;;;6052926;23;20003;-78
2022/05/09 05:44:03;;;;;;;17.42;12.27;;;12.80;99.90;;;;;;6052209;23;20031;-77
2022/05/09 05:47:30;;;;;;;16.60;12.55;;;12.90;99.90;;;;;;6047455;23;20026;-77
2022/05/09 05:50:29;;;;;;;15.95;11.95;;;13.00;99.90;;;;;;6046956;23;20051;-77
2022/05/09 05:52:55;;;;;;;18.17;11.75;;;13.30;99.90;;;;;;5932832;24;20032;-80
2022/05/09 05:55:33;;;;;;;15.07;11.75;;;13.30;99.90;;;;;;6011265;23;20015;-81
2022/05/09 05:57:59;;;;;;;16.50;12.35;;;13.40;99.90;;;;;;6045669;23;20015;-78
2022/05/09 06:00:27;;;;;;;19.30;12.10;;;13.50;99.90;;;;;;6045272;23;20042;-79
2022/05/09 06:02:53;;;;;;;13.98;11.93;;;13.70;99.90;;;;;;6026259;23;20020;-79
2022/05/09 06:05:20;;;;;;;14.75;11.70;;;13.70;99.90;;;;;;6059629;23;20025;-79
2022/05/09 06:07:48;;;;;;;15.23;11.85;;;13.80;99.90;;;;;;6134395;23;20013;-79
2022/05/09 06:10:16;;;;;;;15.00;11.45;;;13.80;99.90;;;;;;6133490;23;20009;-79
2022/05/09 06:13:28;;;;;;;13.35;10.95;;;13.90;99.90;;;;;;6109156;23;20073;-78
2022/05/09 06:15:54;;;;;;;15.80;11.13;;;14.00;99.90;;;;;;6126327;23;20088;-78
2022/05/09 06:19:10;;;;;;;14.40;11.63;;;14.30;99.90;;;;;;6103761;23;20006;-78
2022/05/09 06:22:32;;;;;;;14.95;11.80;;;14.30;99.90;;;;;;6104038;23;20034;-79
2022/05/09 06:27:44;;;;;;;16.77;11.32;;;14.70;99.90;;;;;;6103078;23;20033;-77
2022/05/09 06:30:13;;;;;;;13.25;10.23;;;14.70;99.90;;;;;;6105385;23;20316;-77
2022/05/09 06:32:39;;;;;;;;;;;14.80;99.90;;;;;;6135146;23;20005;-77
2022/05/09 06:35:29;;;;;;;12.98;10.10;;;14.90;99.90;;;;;;6134640;23;20163;-79
2022/05/09 06:38:00;;;;;;;13.38;9.52;;;14.90;99.90;;;;;;6133908;23;20010;-80
2022/05/09 06:40:29;;;;;;;13.55;9.27;;;15.00;99.90;;;;;;6134577;23;20060;-77
2022/05/09 06:42:56;;;;;;;13.75;10.55;;;15.10;99.90;;;;;;6134305;23;20069;-76
2022/05/09 06:45:30;;;;;;;12.57;10.18;;;15.30;99.90;;;;;;6128369;23;20036;-77
2022/05/09 06:47:57;;;;;;;16.83;10.77;;;15.40;99.90;;;;;;6104917;23;20058;-78
2022/05/09 06:50:34;;;;;;;10.88;8.75;;;15.60;99.90;;;;;;6103881;23;20229;-78
2022/05/09 06:53:08;;;;;;;15.70;10.10;;;15.70;99.90;;;;;;6103197;23;20006;-77
2022/05/09 06:58:58;;;;;;;14.98;9.95;;;15.80;99.90;;;;;;6104775;23;20013;-77
2022/05/09 07:01:27;;;;;;;10.80;8.90;;;16.00;99.90;;;;;;6120407;23;20077;-78
2022/05/09 07:03:56;;;;;;;11.32;9.10;;;16.10;99.80;;;;;;6107218;23;20017;-78
2022/05/09 07:06:21;;;;;;;10.77;8.43;;;16.30;99.10;;;;;;6134522;23;20002;-77
2022/05/09 07:08:47;;;;;;;11.18;7.68;;;16.50;98.70;;;;;;6132358;23;20307;-78
2022/05/09 07:11:13;;;;;;;8.90;6.32;;;16.60;97.90;;;;;;6134175;23;20028;-78
2022/05/09 07:13:50;;;;;;;8.93;7.28;;;16.70;97.20;;;;;;6134363;23;19986;-77
2022/05/09 07:16:35;;;;;;;11.73;7.57;;;16.90;97.20;;;;;;6125621;23;20018;-77
2022/05/09 07:19:44;;;;;;;9.63;6.97;;;17.00;96.80;;;;;;6132210;23;20251;-78
2022/05/09 07:22:10;;;;;;;10.57;6.80;;;17.10;96.20;;;;;;6129416;23;20046;-78
2022/05/09 07:24:36;;;;;;;11.50;7.05;;;17.30;96.30;;;;;;6102208;23;20018;-77
2022/05/09 07:27:05;;;;;;;8.07;6.75;;;17.50;95.70;;;;;;6104951;23;20176;-78
2022/05/09 07:29:31;;;;;;;9.40;7.00;;;17.50;95.50;;;;;;6101711;23;20010;-77
2022/05/09 07:32:17;;;;;;;8.52;7.25;;;17.60;95.30;;;;;;6101807;23;20026;-80
2022/05/09 07:35:10;;;;;;;9.65;6.90;;;17.80;94.70;;;;;;6078625;23;20070;-79
2022/05/09 07:37:38;;;;;;;10.98;7.32;;;17.80;94.50;;;;;;6102615;23;20010;-80
2022/05/09 07:40:14;;;;;;;8.93;6.82;;;17.80;94.20;;;;;;6101964;23;19994;-78
2022/05/09 07:42:45;;;;;;;7.47;6.55;;;17.90;93.90;;;;;;6078448;23;20010;-77
2022/05/09 07:45:13;;;;;;;11.20;6.78;;;17.80;93.80;;;;;;6102280;23;20073;-77
2022/05/09 07:47:39;;;;;;;9.38;6.75;;;17.80;93.80;;;;;;6102536;23;20029;-78
2022/05/09 07:50:06;;;;;;;8.48;5.97;;;18.00;94.00;;;;;;6101891;23;20013;-78
2022/05/09 07:52:35;;;;;;;9.75;6.80;;;18.10;93.80;;;;;;6102727;23;20073;-78
2022/05/09 07:55:01;;;;;;;9.93;6.50;;;18.20;93.20;;;;;;6102217;23;20006;-77
2022/05/09 07:57:28;;;;;;;9.02;6.70;;;18.30;93.20;;;;;;6102693;23;20102;-80
2022/05/09 08:00:45;;;;;;;11.32;6.40;;;18.40;93.10;;;;;;6078025;23;20006;-78
2022/05/09 08:07:13;;;;;;;7.95;6.47;;;18.80;92.30;;;;;;6044357;23;20062;-78
2022/05/09 08:10:54;;;;;;;10.27;6.15;;;18.70;92.40;;;;;;6102484;23;20334;-78
2022/05/09 08:13:19;;;;;;;8.65;5.78;;;18.80;92.30;;;;;;6102747;23;20030;-77
2022/05/09 08:15:49;;;;;;;7.15;6.07;;;18.90;91.90;;;;;;6038156;23;20010;-78
2022/05/09 08:18:19;;;;;;;8.43;6.30;;;18.90;91.90;;;;;;6102060;23;20312;-78
2022/05/09 08:20:46;;;;;;;7.00;5.95;;;18.90;91.30;;;;;;6053953;23;20003;-78
2022/05/09 08:23:18;;;;;;;6.87;5.80;;;18.90;91.50;;;;;;6102585;23;20165;-78
2022/05/09 08:25:47;;;;;;;9.07;6.40;;;18.90;91.30;;;;;;6054314;23;20322;-77
2022/05/09 08:28:15;;;;;;;7.47;6.30;;;19.00;91.40;;;;;;6102894;23;20322;-78
2022/05/09 08:30:42;;;;;;;7.13;5.80;;;19.10;90.90;;;;;;6086951;23;20018;-78
2022/05/09 08:33:16;;;;;;;7.65;6.03;;;19.10;90.70;;;;;;6102101;23;20006;-78
2022/05/09 08:35:47;;;;;;;7.28;5.75;;;19.20;90.50;;;;;;6054420;23;20010;-78
2022/05/09 08:38:24;;;;;;;7.32;6.15;;;19.30;90.80;;;;;;6102223;23;20022;-80
2022/05/09 08:41:01;;;;;;;9.32;6.15;;;19.40;90.90;;;;;;6089659;23;20007;-78
2022/05/09 08:43:55;;;;;;;7.13;5.68;;;19.60;90.80;;;;;;6104785;23;20003;-78
2022/05/09 08:47:00;;;;;;;7.10;5.97;;;19.70;90.50;;;;;;6125600;23;20018;-78
2022/05/09 08:49:35;;;;;;;7.25;5.20;;;19.70;90.00;;;;;;6104641;23;20161;-78
2022/05/09 08:52:25;;;;;;;8.65;5.40;;;19.90;89.90;;;;;;6127306;23;20071;-77
2022/05/09 08:54:54;;;;;;;7.25;5.50;;;20.10;90.00;;;;;;6151722;23;20006;-79
2022/05/09 08:57:51;;;;;;;8.60;5.70;;;20.20;89.90;;;;;;6104534;23;20006;-79
2022/05/09 09:00:25;;;;;;;5.80;5.20;;;20.20;90.00;;;;;;6128415;23;20007;-78
2022/05/09 09:03:28;;;;;;;8.20;5.32;;;20.50;88.70;;;;;;6103540;23;20026;-79
2022/05/09 09:06:30;;;;;;;7.00;5.22;;;20.50;88.10;;;;;;6075332;23;20010;-79
2022/05/09 09:09:20;;;;;;;11.60;5.35;;;20.50;88.00;;;;;;6097754;23;20003;-79
2022/05/09 09:12:19;;;;;;;9.75;5.63;;;20.70;87.50;;;;;;6096899;23;20006;-79
2022/05/09 09:15:30;;;;;;;6.88;4.88;;;21.00;86.70;;;;;;6119095;23;20285;-79
2022/05/09 09:18:04;;;;;;;6.78;5.03;;;21.00;86.90;;;;;;6076226;23;20050;-77
2022/05/09 09:21:35;;;;;;;10.73;5.82;;;21.10;86.60;;;;;;6077058;23;20027;-79
2022/05/09 09:24:04;;;;;;;7.75;5.50;;;21.00;85.40;;;;;;6102657;23;20103;-77
2022/05/09 09:26:48;;;;;;;7.20;5.47;;;21.20;85.60;;;;;;6077170;23;20042;-78
2022/05/09 09:29:53;;;;;;;7.28;5.05;;;21.20;84.90;;;;;;6077463;23;20102;-77
2022/05/09 09:32:24;;;;;;;7.43;5.18;;;21.30;84.60;;;;;;6062867;23;20030;-77
2022/05/09 09:35:12;;;;;;;7.18;5.75;;;21.30;84.20;;;;;;6051055;23;20006;-80
2022/05/09 09:38:01;;;;;;;8.90;6.00;;;21.50;83.10;;;;;;6051398;23;20319;-78
2022/05/09 09:40:45;;;;;;;7.47;5.30;;;21.40;83.20;;;;;;6077077;23;20009;-78
2022/05/09 09:43:19;;;;;;;10.13;4.60;;;21.50;83.90;;;;;;6076725;23;20058;-79
2022/05/09 09:46:04;;;;;;;6.85;4.50;;;22.00;82.20;;;;;;6052280;23;20015;-76
2022/05/09 09:48:31;;;;;;;11.48;4.60;;;22.00;82.30;;;;;;6052045;23;20292;-75
2022/05/09 09:51:03;;;;;;;5.78;4.45;;;22.20;81.20;;;;;;6053080;23;20202;-77
2022/05/09 09:54:20;;;;;;;6.88;4.55;;;22.60;78.90;;;;;;6127594;23;20089;-79
2022/05/09 09:56:46;;;;;;;7.07;4.13;;;22.70;79.00;;;;;;6078373;23;20058;-79
2022/05/09 09:59:18;;;;;;;6.93;3.95;;;22.80;78.00;;;;;;6077790;23;20003;-78
2022/05/09 10:02:07;;;;;;;7.00;4.25;;;22.90;77.80;;;;;;6075255;23;20022;-79
2022/05/09 10:04:34;;;;;;;7.57;3.85;;;23.00;76.80;;;;;;6113889;23;20065;-79
2022/05/09 10:07:12;;;;;;;9.10;4.00;;;23.10;77.90;;;;;;6159341;23;20013;-79
2022/05/09 10:09:40;;;;;;;;;;;23.30;76.80;;;;;;6110934;23;20065;-78
2022/05/09 10:12:23;;;;;;;10.83;4.27;;;23.40;75.40;;;;;;6135120;23;19901;-79
2022/05/09 10:14:55;;;;;;;5.95;4.20;;;23.60;75.70;;;;;;6136400;23;20001;-79
2022/05/09 10:17:32;;;;;;;5.95;4.00;;;23.80;74.70;;;;;;6133603;23;20017;-78
2022/05/09 10:20:20;;;;;;;5.45;3.78;;;23.80;74.70;;;;;;6135056;23;20014;-78
2022/05/09 10:25:52;;;;;;;7.57;3.83;;;23.80;73.70;;;;;;6135798;23;20013;-78
2022/05/09 10:28:40;;;;;;;6.07;3.63;;;24.00;73.00;;;;;;6118381;23;20009;-78
2022/05/09 10:32:01;;;;;;;7.28;4.00;;;24.30;72.60;;;;;;6162709;23;20032;-79
2022/05/09 10:34:50;;;;;;;6.57;3.60;;;24.50;72.50;;;;;;6157942;23;20006;-79
2022/05/09 10:45:09;;;;;;;8.38;3.90;;;25.10;69.80;;;;;;5987233;23;20026;-78
2022/05/09 10:48:54;;;;;;;;;;;;;;;;;;;;;
2022/05/09 10:52:11;;;;;;;4.97;3.60;;;25.50;68.80;;;;;;5963416;24;20221;-78
2022/05/09 10:59:03;;;;;;;5.50;3.50;;;25.50;68.50;;;;;;5964290;24;20196;-78
2022/05/09 11:29:11;;;;;;;;;;;;;;;;;;;;;
2022/05/09 11:51:29;;;;;;;8.68;3.20;;;30.10;58.50;;;;;;6090604;23;20065;-79
2022/05/09 11:54:01;;;;;;;4.47;2.33;;;30.20;58.90;;;;;;6155745;23;20334;-79
2022/05/09 11:56:30;;;;;;;5.68;2.85;;;31.40;56.50;;;;;;6167650;23;20016;-79
2022/05/09 11:58:58;;;;;;;3.67;2.60;;;31.80;56.60;;;;;;6166805;23;20020;-79
2022/05/09 12:01:53;;;;;;;4.18;2.67;;;31.50;55.60;;;;;;6166273;23;20006;-79
2022/05/09 12:04:41;;;;;;;3.33;2.65;;;31.20;55.80;;;;;;6166562;23;20004;-79
2022/05/09 12:07:26;;;;;;;3.72;2.35;;;31.60;56.70;;;;;;6164947;23;20009;-80
2022/05/09 12:10:00;;;;;;;5.18;2.92;;;33.50;55.40;;;;;;6167383;23;20176;-80
2022/05/09 12:12:44;;;;;;;5.88;2.70;;;32.60;54.70;;;;;;6166799;23;20116;-79
2022/05/09 12:15:16;;;;;;;6.97;2.75;;;33.20;54.60;;;;;;6165103;23;20059;-79
2022/05/09 12:17:48;;;;;;;7.50;3.22;;;32.70;54.20;;;;;;6136395;23;20284;-78
2022/05/09 12:20:41;;;;;;;3.70;2.70;;;31.70;54.30;;;;;;6136314;23;20041;-77
2022/05/09 12:23:10;;;;;;;5.28;2.53;;;31.10;55.50;;;;;;6104600;23;20007;-79
2022/05/09 12:25:41;;;;;;;3.40;2.47;;;32.80;55.30;;;;;;6079729;23;20068;-80
2022/05/09 12:28:26;;;;;;;4.95;2.70;;;34.60;53.50;;;;;;6105049;23;20015;-80
2022/05/09 12:34:58;;;;;;;4.90;2.60;;;33.70;52.20;;;;;;6134537;23;20009;-80
2022/05/09 12:37:24;;;;;;;;;;;34.20;51.90;;;;;;6106282;23;20014;-80
2022/05/09 12:39:56;;;;;;;3.97;2.38;;;36.60;50.30;;;;;;6105404;23;20075;-80
2022/05/09 12:42:34;;;;;;;3.15;2.58;;;37.00;49.30;;;;;;6104317;23;20010;-79
2022/05/09 12:45:02;;;;;;;;;;;37.30;49.10;;;;;;6105178;23;20048;-79
2022/05/09 12:47:34;;;;;;;5.10;2.72;;;37.10;48.80;;;;;;6104371;23;19905;-78
2022/05/09 12:50:30;;;;;;;5.47;2.40;;;37.40;49.30;;;;;;6106103;23;20014;-79
2022/05/09 12:53:17;;;;;;;3.20;2.10;;;38.40;48.70;;;;;;6105416;23;20014;-79
2022/05/09 12:55:57;;;;;;;5.22;2.70;;;37.70;48.30;;;;;;6105575;23;20114;-80
2022/05/09 12:58:43;;;;;;;3.92;2.30;;;38.70;47.60;;;;;;6105571;23;20002;-80
2022/05/09 13:01:23;;;;;;;5.95;2.60;;;39.00;48.50;;;;;;6106525;23;20018;-79
2022/05/09 13:04:00;;;;;;;4.72;2.30;;;39.90;46.50;;;;;;6107107;23;20010;-79
2022/05/09 13:06:51;;;;;;;3.60;2.20;;;39.20;47.40;;;;;;6084012;23;20014;-79
2022/05/09 13:09:25;;;;;;;3.67;2.35;;;40.30;46.80;;;;;;6107092;23;20020;-81
2022/05/09 13:11:57;;;;;;;4.90;2.03;;;40.20;46.10;;;;;;6083773;23;20034;-79
2022/05/09 13:14:32;;;;;;;4.53;2.35;;;41.00;45.50;;;;;;6146057;23;20009;-78
2022/05/09 13:17:03;;;;;;;3.85;2.38;;;41.20;46.10;;;;;;6169161;23;20057;-80
2022/05/09 13:19:30;;;;;;;3.35;2.15;;;41.90;45.10;;;;;;6168093;23;20025;-80
2022/05/09 13:25:51;;;;;;;3.72;2.28;;;42.20;44.70;;;;;;6147649;23;20030;-79
2022/05/09 13:28:23;;;;;;;5.07;1.77;;;43.20;43.90;;;;;;6197851;23;20302;-79
2022/05/09 13:30:51;;;;;;;6.05;2.10;;;43.10;44.10;;;;;;6227228;23;20027;-80
2022/05/09 13:33:21;;;;;;;3.08;1.90;;;43.90;43.10;;;;;;6227750;23;20307;-80
2022/05/09 13:35:50;;;;;;;2.90;1.60;;;42.50;42.90;;;;;;6229269;23;20278;-80
2022/05/09 13:38:38;;;;;;;5.70;1.70;;;41.60;43.60;;;;;;6227871;23;20024;-79
2022/05/09 13:41:13;;;;;;;2.97;1.95;;;41.30;44.10;;;;;;6227089;23;20020;-78
2022/05/09 13:43:49;;;;;;;4.05;2.17;;;42.00;43.70;;;;;;6196347;23;20023;-78
2022/05/09 13:46:56;;;;;;;4.82;2.38;;;41.60;43.70;;;;;;6226704;23;20028;-79
2022/05/09 13:49:41;;;;;;;3.70;2.40;;;39.70;44.80;;;;;;6106480;23;20204;-79
2022/05/09 13:52:30;;;;;;;3.30;2.22;;;37.40;45.70;;;;;;6105447;23;20010;-80
2022/05/09 13:55:48;;;;;;;3.83;2.40;;;34.90;48.20;;;;;;6105714;23;20021;-80
2022/05/09 13:58:24;;;;;;;2.97;2.25;;;37.80;46.10;;;;;;6047762;23;20019;-79
2022/05/09 14:01:21;;;;;;;3.38;2.50;;;37.90;45.70;;;;;;6048435;23;20075;-80
2022/05/09 14:04:09;;;;;;;4.18;2.20;;;38.60;45.70;;;;;;6049039;23;20087;-79
2022/05/09 14:09:57;;;;;;;4.60;2.10;;;41.10;44.50;;;;;;5969164;24;20036;-81
2022/05/09 14:12:26;;;;;;;7.33;2.40;;;42.50;44.20;;;;;;5992889;24;20016;-81
2022/05/09 14:15:24;;;;;;;3.80;1.73;;;43.50;43.20;;;;;;6003856;23;20428;-80
2022/05/09 14:18:27;;;;;;;3.55;2.00;;;44.10;42.70;;;;;;6019583;23;20022;-81
2022/05/09 14:21:13;;;;;;;3.50;2.10;;;44.20;42.10;;;;;;6093430;23;20263;-81
2022/05/09 14:23:47;;;;;;;2.80;2.00;;;44.50;41.50;;;;;;6083096;23;20010;-78
2022/05/09 14:30:09;;;;;;;3.83;1.90;;;43.70;41.80;;;;;;6078957;23;20019;-80
2022/05/09 14:32:52;;;;;;;3.10;1.85;;;43.50;41.20;;;;;;6135933;23;20071;-82
2022/05/09 14:35:56;;;;;;;4.70;2.10;;;43.50;42.20;;;;;;6186146;23;20005;-80
2022/05/09 14:39:04;;;;;;;4.18;2.50;;;45.00;41.40;;;;;;6108106;23;20006;-80
2022/05/09 14:41:37;;;;;;;6.47;2.40;;;44.00;41.90;;;;;;6109822;23;20006;-80
2022/05/09 14:44:34;;;;;;;4.15;2.30;;;44.20;42.30;;;;;;6108456;23;20066;-81
2022/05/09 14:47:08;;;;;;;4.07;2.40;;;44.00;42.10;;;;;;6107064;23;20355;-80
2022/05/09 14:50:08;;;;;;;4.82;2.20;;;44.80;41.00;;;;;;6048944;23;20201;-80
2022/05/09 14:53:36;;;;;;;3.42;1.80;;;45.50;40.90;;;;;;6026040;23;20007;-79
2022/05/09 15:03:23;;;;;;;3.15;2.35;;;43.90;40.70;;;;;;5963381;24;20053;-79
2022/05/09 15:05:52;;;;;;;3.28;1.90;;;43.30;40.80;;;;;;5941390;24;20237;-80
2022/05/09 15:08:22;;;;;;;3.20;1.88;;;42.20;41.90;;;;;;5964232;24;20036;-80
2022/05/09 15:10:51;;;;;;;4.35;2.03;;;43.40;41.60;;;;;;5991281;24;20100;-79
2022/05/09 15:13:21;;;;;;;3.25;2.17;;;43.10;41.30;;;;;;5991344;24;20163;-80
2022/05/09 15:15:51;;;;;;;3.20;2.00;;;43.00;41.30;;;;;;5991298;23;20012;-79
2022/05/09 15:18:18;;;;;;;4.22;2.08;;;41.90;41.70;;;;;;5991757;24;20036;-80
2022/05/09 15:20:44;;;;;;;3.10;2.20;;;42.80;42.50;;;;;;6039826;23;20018;-80
2022/05/09 15:23:10;;;;;;;3.07;2.17;;;44.10;40.80;;;;;;6075699;23;20034;-79
2022/05/09 15:25:37;;;;;;;4.18;2.08;;;44.30;40.70;;;;;;6076366;23;20006;-80
2022/05/09 15:28:04;;;;;;;;;;;45.00;40.70;;;;;;6077900;23;20038;-80
2022/05/09 15:30:32;;;;;;;3.13;2.05;;;44.60;40.70;;;;;;6184177;23;19928;-79
2022/05/09 15:32:58;;;;;;;3.43;1.97;;;44.70;40.10;;;;;;6170834;23;20083;-81
2022/05/09 15:35:26;;;;;;;3.65;2.30;;;45.40;39.70;;;;;;6196271;23;20252;-81
2022/05/09 15:37:52;;;;;;;3.05;1.73;;;45.50;39.40;;;;;;6196875;23;20028;-81
2022/05/09 15:40:17;;;;;;;3.45;1.77;;;45.30;40.10;;;;;;6169989;23;20009;-80
2022/05/09 15:42:44;;;;;;;3.55;1.73;;;44.60;40.10;;;;;;6198593;23;19994;-79
2022/05/09 15:45:13;;;;;;;2.85;1.83;;;43.70;40.30;;;;;;6120977;23;20283;-81
2022/05/09 15:47:43;;;;;;;2.75;2.00;;;44.10;40.60;;;;;;6196793;23;19993;-80
2022/05/09 15:50:20;;;;;;;5.43;2.10;;;44.20;40.80;;;;;;6171685;23;20009;-80
2022/05/09 15:52:45;;;;;;;3.38;2.20;;;44.30;40.30;;;;;;6192736;23;20002;-80
2022/05/09 15:55:13;;;;;;;4.50;2.05;;;44.50;41.30;;;;;;6191832;23;19997;-80
2022/05/09 15:57:41;;;;;;;4.32;1.90;;;44.70;40.50;;;;;;6166266;23;20008;-79
2022/05/09 17:22:54;;;;;;;4.85;2.72;;;29.70;51.90;;;;;;6108707;23;21136;-81
2022/05/09 17:25:25;;;;;;;3.92;3.05;;;29.80;52.40;;;;;;6192528;23;20188;-80
2022/05/09 17:27:52;;;;;;;4.50;2.92;;;29.50;52.20;;;;;;6222706;23;20352;-80
2022/05/09 17:30:24;;;;;;;5.22;3.25;;;29.30;53.60;;;;;;6221305;23;20255;-80
2022/05/09 17:32:51;;;;;;;5.20;2.95;;;29.40;52.80;;;;;;6222691;23;20000;-80
2022/05/09 17:38:01;;;;;;;4.82;3.13;;;30.10;52.30;;;;;;6222938;23;20283;-81
2022/05/09 17:40:38;;;;;;;3.88;3.00;;;29.90;51.80;;;;;;6223038;23;19988;-81
2022/05/09 17:43:05;;;;;;;5.32;3.17;;;29.50;52.70;;;;;;6171485;23;20078;-79
2022/05/09 17:45:38;;;;;;;4.47;3.30;;;29.10;52.90;;;;;;6222196;23;20066;-79
2022/05/09 17:48:04;;;;;;;4.40;3.15;;;28.50;53.60;;;;;;6198582;23;20321;-81
2022/05/09 17:50:30;;;;;;;4.88;3.78;;;27.80;54.50;;;;;;6224090;23;20035;-81
2022/05/09 17:52:56;;;;;;;8.15;4.15;;;27.80;54.60;;;;;;6198032;23;20004;-81
2022/05/09 17:55:22;;;;;;;5.60;3.78;;;27.60;54.80;;;;;;6224211;23;20001;-80
2022/05/09 17:57:47;;;;;;;4.97;3.42;;;27.70;54.80;;;;;;6200497;23;20000;-81
2022/05/09 18:00:14;;;;;;;5.57;3.38;;;27.40;55.20;;;;;;6197667;23;20031;-81
2022/05/09 18:02:43;;;;;;;6.57;3.55;;;27.30;55.90;;;;;;6224567;23;20016;-81
2022/05/09 18:05:14;;;;;;;3.95;2.97;;;27.10;55.70;;;;;;6225352;23;19985;-81
2022/05/09 18:07:41;;;;;;;4.90;3.40;;;26.80;56.10;;;;;;6198856;23;20008;-81
2022/05/09 18:10:09;;;;;;;4.82;3.42;;;26.40;56.70;;;;;;6174980;23;20091;-80
2022/05/09 18:12:40;;;;;;;4.90;4.03;;;26.20;57.20;;;;;;6224110;23;20020;-81
2022/05/09 18:15:21;;;;;;;4.93;3.72;;;26.10;58.40;;;;;;6225231;23;20004;-81
2022/05/09 18:18:01;;;;;;;6.47;3.45;;;26.10;58.30;;;;;;6224539;23;20008;-81
2022/05/09 18:20:31;;;;;;;5.50;3.85;;;25.90;58.20;;;;;;6196383;23;20001;-81
2022/05/09 18:26:13;;;;;;;5.72;4.28;;;25.90;58.20;;;;;;6194240;23;20027;-80
2022/05/09 18:28:48;;;;;;;6.90;3.80;;;25.60;58.40;;;;;;6193408;23;20345;-80
2022/05/09 18:31:15;;;;;;;5.95;3.80;;;25.40;58.90;;;;;;6193539;23;20013;-79
2022/05/09 18:33:46;;;;;;;6.20;4.05;;;25.30;59.60;;;;;;6194300;23;19997;-80
2022/05/09 18:36:43;;;;;;;5.90;3.78;;;25.00;60.10;;;;;;6194891;23;20305;-79
2022/05/09 18:39:23;;;;;;;5.75;3.70;;;24.90;60.60;;;;;;6169900;23;20054;-80
2022/05/09 18:41:53;;;;;;;5.93;4.30;;;24.90;60.70;;;;;;6199591;23;20151;-77
2022/05/09 18:44:25;;;;;;;6.63;4.32;;;24.70;61.20;;;;;;6199764;23;20001;-80
2022/05/09 18:46:57;;;;;;;6.40;3.92;;;24.70;61.30;;;;;;6201334;23;20024;-77
2022/05/09 18:52:37;;;;;;;9.00;4.75;;;24.40;61.70;;;;;;6194071;23;20006;-79
2022/05/09 18:55:25;;;;;;;5.85;4.53;;;24.30;62.20;;;;;;6194367;23;20000;-77
2022/05/09 18:58:02;;;;;;;5.70;3.92;;;24.10;62.40;;;;;;6194370;23;20056;-78
2022/05/09 19:00:31;;;;;;;5.63;4.07;;;24.00;63.00;;;;;;6167589;23;20060;-79
2022/05/09 19:03:00;;;;;;;5.75;3.88;;;23.80;63.40;;;;;;6195068;23;20199;-80
2022/05/09 19:05:28;;;;;;;6.70;4.40;;;23.80;64.00;;;;;;6167526;23;20005;-78
2022/05/09 19:08:31;;;;;;;7.85;4.88;;;23.80;64.20;;;;;;6167454;23;20298;-80
2022/05/09 19:11:00;;;;;;;9.38;5.88;;;23.70;64.70;;;;;;6168031;23;20056;-79
2022/05/09 19:13:29;;;;;;;6.97;5.00;;;23.60;64.80;;;;;;6168967;23;20207;-79
2022/05/09 19:16:33;;;;;;;7.95;5.07;;;23.60;65.00;;;;;;6193426;23;20016;-79
2022/05/09 19:19:00;;;;;;;8.85;4.60;;;23.40;65.00;;;;;;6192513;23;20051;-79
2022/05/09 19:21:26;;;;;;;7.30;4.75;;;23.30;65.10;;;;;;6192882;23;20020;-79
2022/05/09 19:23:54;;;;;;;8.73;5.05;;;23.10;66.10;;;;;;6194351;23;20058;-79
2022/05/09 19:26:40;;;;;;;6.65;5.32;;;23.00;66.30;;;;;;6223843;23;20011;-80
2022/05/09 19:29:17;;;;;;;7.28;5.43;;;22.90;66.50;;;;;;6196555;23;20004;-79
2022/05/09 19:35:19;;;;;;;9.18;5.55;;;22.60;66.90;;;;;;6196922;23;20305;-78
2022/05/09 19:37:45;;;;;;;7.65;5.60;;;22.30;68.30;;;;;;6223059;23;20009;-80
2022/05/09 19:40:24;;;;;;;8.35;5.43;;;22.10;68.90;;;;;;6198285;23;20060;-80
2022/05/09 19:43:04;;;;;;;6.60;5.50;;;21.90;69.80;;;;;;6224418;23;20008;-79
2022/05/09 19:46:10;;;;;;;8.52;6.28;;;21.80;70.50;;;;;;6195270;23;20008;-78
2022/05/09 19:48:39;;;;;;;9.40;6.15;;;21.60;70.70;;;;;;6222454;23;20058;-80
2022/05/09 19:51:07;;;;;;;8.40;6.10;;;21.40;71.60;;;;;;6223657;23;20007;-80
2022/05/09 19:57:19;;;;;;;9.00;6.30;;;21.30;71.60;;;;;;6222101;23;20035;-80
2022/05/09 19:59:45;;;;;;;8.60;5.72;;;21.20;71.80;;;;;;6196826;23;20009;-80
2022/05/09 20:02:17;;;;;;;10.45;6.25;;;21.20;72.10;;;;;;6222264;23;20017;-79
2022/05/09 20:04:44;;;;;;;8.07;5.93;;;21.00;72.50;;;;;;6222890;23;20272;-81
2022/05/09 20:07:10;;;;;;;7.47;5.90;;;20.90;73.20;;;;;;6197454;23;20175;-81
2022/05/09 20:09:36;;;;;;;8.75;6.25;;;20.80;73.70;;;;;;6196587;23;20008;-81
2022/05/09 20:12:09;;;;;;;7.88;6.38;;;20.70;74.60;;;;;;6224098;23;20004;-80
2022/05/09 20:14:39;;;;;;;10.10;7.03;;;20.60;74.90;;;;;;6223275;23;20007;-79
2022/05/09 20:17:05;;;;;;;7.72;6.47;;;20.50;75.80;;;;;;6223189;23;20020;-78
2022/05/09 20:19:31;;;;;;;9.50;6.78;;;20.30;76.10;;;;;;6196469;23;20068;-79
2022/05/09 20:21:58;;;;;;;8.30;6.55;;;20.20;76.40;;;;;;6195413;23;20027;-80
2022/05/09 20:24:24;;;;;;;11.45;7.15;;;20.20;76.90;;;;;;6189310;23;20017;-80
2022/05/09 20:36:13;;;;;;;10.15;6.68;;;19.70;78.40;;;;;;6163243;23;20041;-80
2022/05/09 20:38:42;;;;;;;11.85;8.02;;;19.60;78.70;;;;;;6163022;23;20005;-80
2022/05/09 20:41:16;;;;;;;;;;;19.50;79.30;;;;;;6163796;23;20165;-78
2022/05/09 20:43:51;;;;;;;11.35;7.25;;;19.40;79.40;;;;;;6111911;23;19900;-79
2022/05/09 20:50:09;;;;;;;9.73;7.28;;;19.20;80.30;;;;;;6163520;23;20012;-81
2022/05/09 20:52:36;;;;;;;9.90;7.00;;;19.10;80.70;;;;;;6162834;23;20001;-80
2022/05/09 20:55:15;;;;;;;11.80;6.80;;;18.90;81.10;;;;;;6137115;23;20029;-79
2022/05/09 20:57:43;;;;;;;9.80;6.50;;;18.80;80.50;;;;;;6162199;23;20005;-80
2022/05/09 21:00:12;;;;;;;8.27;6.85;;;18.80;81.00;;;;;;6162599;23;20023;-79
2022/05/09 21:02:42;;;;;;;8.82;7.07;;;18.80;81.60;;;;;;6163118;23;20002;-79
2022/05/09 21:05:08;;;;;;;7.10;6.00;;;18.70;81.50;;;;;;6137205;23;20010;-81
2022/05/09 21:07:35;;;;;;;8.27;6.10;;;18.60;81.70;;;;;;6136883;23;20028;-80
2022/05/09 21:10:02;;;;;;;8.63;6.63;;;18.60;81.70;;;;;;6137193;23;20009;-79
2022/05/09 21:16:15;;;;;;;9.02;6.35;;;18.20;82.80;;;;;;6162834;23;20040;-79
2022/05/09 21:18:41;;;;;;;7.20;5.85;;;18.20;82.30;;;;;;6136641;23;20199;-79
2022/05/09 21:21:11;;;;;;;9.15;6.40;;;18.10;82.70;;;;;;6164318;23;20001;-80
2022/05/09 21:23:43;;;;;;;7.95;6.28;;;18.10;83.60;;;;;;6114671;23;20006;-79
2022/05/09 21:26:09;;;;;;;7.78;5.97;;;17.90;83.80;;;;;;6167386;23;20080;-80
2022/05/09 21:28:38;;;;;;;10.23;6.68;;;17.90;83.50;;;;;;6194577;23;20060;-80
2022/05/09 21:31:11;;;;;;;11.88;6.13;;;17.90;83.90;;;;;;6164062;23;20048;-80
2022/05/09 21:33:41;;;;;;;8.50;6.00;;;17.90;84.30;;;;;;6194481;23;20194;-79
2022/05/09 21:36:24;;;;;;;8.63;6.38;;;17.90;84.30;;;;;;6168778;23;20005;-81
2022/05/09 21:43:33;;;;;;;7.70;6.25;;;17.70;84.90;;;;;;6194653;23;20314;-80
2022/05/09 21:45:59;;;;;;;9.63;6.65;;;17.70;85.20;;;;;;6167856;23;20064;-80
2022/05/09 21:48:51;;;;;;;8.60;6.80;;;17.50;86.10;;;;;;6168588;23;20016;-81
2022/05/09 21:51:19;;;;;;;9.02;6.75;;;17.40;86.50;;;;;;6168663;23;20001;-80
2022/05/09 21:54:34;;;;;;;9.70;6.83;;;17.40;86.50;;;;;;6168008;23;20317;-80
2022/05/09 21:57:01;;;;;;;10.25;7.40;;;17.30;87.00;;;;;;6144129;23;20005;-80
2022/05/09 21:59:33;;;;;;;10.52;7.53;;;17.20;87.70;;;;;;6195001;23;20032;-81
2022/05/09 22:02:00;;;;;;;9.55;7.45;;;17.10;88.70;;;;;;6194174;23;20068;-81
2022/05/09 22:04:26;;;;;;;8.88;6.82;;;17.00;89.40;;;;;;6168331;23;20009;-82
2022/05/09 22:07:31;;;;;;;9.95;7.47;;;16.90;89.10;;;;;;6167308;23;20056;-80
2022/05/09 22:10:35;;;;;;;10.65;7.60;;;16.90;89.50;;;;;;6194044;23;20017;-79
2022/05/09 22:13:13;;;;;;;11.38;7.57;;;16.80;90.30;;;;;;6194484;23;20287;-81
2022/05/09 22:16:13;;;;;;;10.63;7.30;;;16.80;90.10;;;;;;6193206;23;20015;-79
2022/05/09 22:18:40;;;;;;;10.48;7.35;;;16.80;90.00;;;;;;6142798;23;20025;-80
2022/05/09 22:21:09;;;;;;;10.10;7.40;;;16.70;90.10;;;;;;6193244;23;20056;-80
2022/05/09 22:23:41;;;;;;;10.30;7.95;;;16.70;90.50;;;;;;6194102;23;20068;-81